createdAt,value
2019-02-06T00:03:09.463Z,22.10
2019-02-06T00:08:14.820Z,21.60
2019-02-06T00:13:20.139Z,24.00
2019-02-06T00:18:25.902Z,24.27
2019-02-06T00:23:31.231Z,25.20
2019-02-06T00:28:35.959Z,23.87
2019-02-06T00:33:41.195Z,21.23
2019-02-06T00:38:46.639Z,23.60
2019-02-06T00:43:51.971Z,23.63
2019-02-06T00:48:57.307Z,24.67
2019-02-06T00:54:03.053Z,18.80
2019-02-06T00:59:08.702Z,6.10
2019-02-06T01:04:13.504Z,15.07
2019-02-06T01:09:18.863Z,19.33
2019-02-06T01:14:24.191Z,18.07
2019-02-06T01:19:29.560Z,13.27
2019-02-06T01:24:35.237Z,21.10
2019-02-06T01:29:40.563Z,11.83
2019-02-06T01:34:46.204Z,13.93
2019-02-06T01:39:50.914Z,15.33
2019-02-06T01:44:55.555Z,12.20
2019-02-06T01:50:00.900Z,15.93
2019-02-06T01:55:06.729Z,11.03
2019-02-06T02:00:22.409Z,14.77
2019-02-06T02:05:27.806Z,18.23
2019-02-06T02:10:33.135Z,17.87
2019-02-06T02:15:38.567Z,17.40
2019-02-06T02:20:43.927Z,23.50
2019-02-06T02:25:48.643Z,21.10
2019-02-06T02:30:55.439Z,18.47
2019-02-06T02:36:00.828Z,8.17
2019-02-06T02:41:06.577Z,13.93
2019-02-06T02:46:11.334Z,16.20
2019-02-06T02:51:16.583Z,18.47
2019-02-06T02:56:21.315Z,12.57
2019-02-06T03:01:38.728Z,14.33
2019-02-06T03:06:43.449Z,7.30
2019-02-06T03:11:49.362Z,20.83
2019-02-06T03:16:54.695Z,9.13
2019-02-06T03:22:00.355Z,16.47
2019-02-06T03:27:05.743Z,15.93
2019-02-06T03:32:11.077Z,22.43
2019-02-06T03:37:17.662Z,20.87
2019-02-06T03:42:22.991Z,20.10
2019-02-06T03:47:28.311Z,19.90
2019-02-06T03:52:33.847Z,15.10
2019-02-06T03:57:38.555Z,15.77
2019-02-06T04:02:43.800Z,19.97
2019-02-06T04:07:48.503Z,16.87
2019-02-06T04:12:53.728Z,17.50
2019-02-06T04:17:59.050Z,24.40
2019-02-06T04:23:04.497Z,7.97
2019-02-06T04:28:10.124Z,15.10
2019-02-06T04:33:15.441Z,15.20
2019-02-06T04:38:20.766Z,17.97
2019-02-06T04:43:26.083Z,9.10
2019-02-06T04:48:32.246Z,19.47
2019-02-06T04:53:37.639Z,8.87
2019-02-06T04:58:42.947Z,5.33
2019-02-06T05:03:47.667Z,14.13
2019-02-06T05:08:52.914Z,21.17
2019-02-06T05:13:58.233Z,21.27
2019-02-06T05:19:03.556Z,22.93
2019-02-06T05:24:08.260Z,22.07
2019-02-06T05:29:13.792Z,17.67
2019-02-06T05:34:19.109Z,17.93
2019-02-06T05:39:24.427Z,23.70
2019-02-06T05:44:29.744Z,24.53
2019-02-06T05:49:35.109Z,21.87
2019-02-06T05:54:40.437Z,20.27
2019-02-06T05:59:46.759Z,22.03
2019-02-06T06:04:52.913Z,23.23
2019-02-06T06:09:58.279Z,25.87
2019-02-06T06:15:03.616Z,25.87
2019-02-06T06:20:10.355Z,24.50
2019-02-06T06:25:16.169Z,29.23
2019-02-06T06:30:22.411Z,28.73
2019-02-06T06:35:27.747Z,31.10
2019-02-06T06:40:33.648Z,29.40
2019-02-06T06:45:39.323Z,28.47
2019-02-06T06:50:44.227Z,31.40
2019-02-06T06:55:50.102Z,30.97
2019-02-06T07:00:56.452Z,31.23
2019-02-06T07:06:02.034Z,29.40
2019-02-06T07:11:08.598Z,32.77
2019-02-06T07:16:13.927Z,33.77
2019-02-06T07:21:19.417Z,33.93
2019-02-06T07:26:25.299Z,33.97
2019-02-06T07:31:30.979Z,23.93
2019-02-06T07:36:36.331Z,25.53
2019-02-06T07:41:41.899Z,29.53
2019-02-06T07:46:47.395Z,30.60
2019-02-06T07:51:52.715Z,23.70
2019-02-06T07:56:58.127Z,14.33
2019-02-06T08:02:03.499Z,29.83
2019-02-06T08:07:08.858Z,26.97
2019-02-06T08:12:13.807Z,20.20
2019-02-06T08:17:19.399Z,10.73
2019-02-06T08:22:24.115Z,19.87
2019-02-06T08:27:29.370Z,13.53
2019-02-06T08:32:34.095Z,10.67
2019-02-06T08:37:39.327Z,13.40
2019-02-06T08:42:44.431Z,9.93
2019-02-06T08:47:49.658Z,16.90
2019-02-06T08:52:54.358Z,14.37
2019-02-06T08:57:59.733Z,16.40
2019-02-06T09:03:06.704Z,13.27
2019-02-06T09:08:12.026Z,15.83
2019-02-06T09:13:17.339Z,15.83
2019-02-06T09:18:22.775Z,18.60
2019-02-06T09:23:28.118Z,15.77
2019-02-06T09:28:33.472Z,16.13
2019-02-06T09:33:38.920Z,16.23
2019-02-06T09:38:43.619Z,16.83
2019-02-06T09:43:48.967Z,8.90
2019-02-06T09:48:55.159Z,17.13
2019-02-06T09:53:59.863Z,8.37
2019-02-06T09:59:05.192Z,8.90
2019-02-06T10:04:09.919Z,11.37
2019-02-06T10:09:22.689Z,13.63
2019-02-06T10:14:22.173Z,13.03
2019-02-06T10:19:27.911Z,14.13
2019-02-06T10:24:33.631Z,5.50
2019-02-06T10:29:39.281Z,14.53
2019-02-06T10:34:44.656Z,15.40
2019-02-06T10:39:50.521Z,16.20
2019-02-06T10:44:56.391Z,15.70
2019-02-06T10:50:02.359Z,15.73
2019-02-06T10:55:09.828Z,15.73
2019-02-06T11:00:21.827Z,17.07
2019-02-06T11:05:26.683Z,18.47
2019-02-06T11:10:32.560Z,15.63
2019-02-06T11:15:37.802Z,16.57
2019-02-06T11:20:43.060Z,16.23
2019-02-06T11:25:48.384Z,17.37
2019-02-06T11:30:55.216Z,20.27
2019-02-06T11:36:00.867Z,16.57
2019-02-06T11:41:06.039Z,20.80
2019-02-06T11:46:11.819Z,21.40
2019-02-06T11:51:17.191Z,19.70
2019-02-06T11:56:22.518Z,21.57
2019-02-06T12:01:34.243Z,19.27
2019-02-06T12:06:39.563Z,20.13
2019-02-06T12:11:45.044Z,16.87
2019-02-06T12:16:50.759Z,18.03
2019-02-06T12:21:56.083Z,18.13
2019-02-06T12:27:01.665Z,16.97
2019-02-06T12:32:07.008Z,19.70
2019-02-06T12:37:12.435Z,16.60
2019-02-06T12:42:17.868Z,15.63
2019-02-06T12:47:23.191Z,13.40
2019-02-06T12:52:27.895Z,14.40
2019-02-06T12:57:37.158Z,12.83
2019-02-06T13:02:40.072Z,14.47
2019-02-06T13:07:45.719Z,14.60
2019-02-06T13:12:51.043Z,16.17
2019-02-06T13:17:56.371Z,20.17
2019-02-06T13:23:01.734Z,14.33
2019-02-06T13:28:07.333Z,14.30
2019-02-06T13:33:12.727Z,16.17
2019-02-06T13:38:18.155Z,16.00
2019-02-06T13:43:23.519Z,14.73
2019-02-06T13:48:28.859Z,12.83
2019-02-06T13:53:34.251Z,12.77
2019-02-06T13:58:39.582Z,14.70
2019-02-06T14:03:44.899Z,14.00
2019-02-06T14:08:50.236Z,13.90
2019-02-06T14:13:55.638Z,12.13
2019-02-06T14:19:00.360Z,13.07
2019-02-06T14:24:34.003Z,12.90
2019-02-06T14:30:32.685Z,11.97
2019-02-06T14:36:25.243Z,10.80
2019-02-06T14:42:20.823Z,12.80
2019-02-06T14:47:44.599Z,13.57
2019-02-06T14:53:01.534Z,12.73
2019-02-06T14:58:14.703Z,15.73
2019-02-06T15:03:58.161Z,12.40
2019-02-06T15:09:39.192Z,11.93
2019-02-06T15:15:00.333Z,11.30
2019-02-06T15:20:26.055Z,14.33
2019-02-06T15:25:52.370Z,12.20
2019-02-06T15:31:40.263Z,12.63
2019-02-06T15:37:10.053Z,15.70
2019-02-06T15:42:37.751Z,12.20
2019-02-06T15:47:48.664Z,14.30
2019-02-06T15:53:05.832Z,13.97
2019-02-06T15:58:29.724Z,12.03
2019-02-06T16:04:15.733Z,12.80
2019-02-06T16:09:39.674Z,12.47
2019-02-06T16:15:38.054Z,11.23
2019-02-06T16:21:04.967Z,14.10
2019-02-06T16:26:15.814Z,14.30
2019-02-06T16:31:48.707Z,12.97
2019-02-06T16:37:27.779Z,15.93
2019-02-06T16:42:51.664Z,16.57
2019-02-06T16:48:18.229Z,12.03
2019-02-06T16:54:07.644Z,16.40
2019-02-06T16:59:34.275Z,17.87
2019-02-06T17:04:48.656Z,16.27
2019-02-06T17:10:27.272Z,16.07
2019-02-06T17:15:40.987Z,17.57
2019-02-06T17:21:07.577Z,16.63
2019-02-06T17:26:26.575Z,17.80
2019-02-06T17:31:39.977Z,18.03
2019-02-06T17:37:01.011Z,15.97
2019-02-06T17:42:15.500Z,15.73
2019-02-06T17:47:45.567Z,12.03
2019-02-06T17:53:08.083Z,13.07
2019-02-06T17:58:13.855Z,12.37
2019-02-06T18:03:18.795Z,14.60
2019-02-06T18:08:24.069Z,14.53
2019-02-06T18:13:30.896Z,13.73
2019-02-06T18:18:36.202Z,14.33
2019-02-06T18:23:40.811Z,15.70
2019-02-06T18:28:46.038Z,14.40
2019-02-06T18:33:52.244Z,14.77
2019-02-06T18:38:56.875Z,12.43
2019-02-06T18:44:02.021Z,14.47
2019-02-06T18:49:06.611Z,11.17
2019-02-06T18:54:11.857Z,10.93
2019-02-06T18:59:17.195Z,9.73
2019-02-06T19:04:22.572Z,8.47
2019-02-06T19:09:28.938Z,8.30
2019-02-06T19:14:33.473Z,15.47
2019-02-06T19:19:38.107Z,14.27
2019-02-06T19:24:42.711Z,13.00
2019-02-06T19:29:47.952Z,15.13
2019-02-06T19:34:52.673Z,17.10
2019-02-06T19:39:57.911Z,12.90
2019-02-06T19:45:02.676Z,13.07
2019-02-06T19:50:11.613Z,11.77
2019-02-06T19:55:16.807Z,11.37
2019-02-06T20:00:22.899Z,9.17
2019-02-06T20:05:28.251Z,11.93
2019-02-06T20:10:35.667Z,12.57
2019-02-06T20:15:40.403Z,15.63
2019-02-06T20:20:45.394Z,12.73
2019-02-06T20:25:50.680Z,15.80
2019-02-06T20:30:55.403Z,17.40
2019-02-06T20:36:00.203Z,14.57
2019-02-06T20:41:04.875Z,15.23
2019-02-06T20:46:10.137Z,14.10
2019-02-06T20:51:14.850Z,16.03
2019-02-06T20:56:19.478Z,15.03
2019-02-06T21:01:24.487Z,16.00
2019-02-06T21:06:29.230Z,8.97
2019-02-06T21:11:33.924Z,13.13
2019-02-06T21:16:39.543Z,14.47
2019-02-06T21:21:44.379Z,14.70
2019-02-06T21:26:49.213Z,11.87
2019-02-06T21:31:54.183Z,19.83
2019-02-06T21:36:58.887Z,8.27
2019-02-06T21:42:03.728Z,8.47
2019-02-06T21:47:09.036Z,14.27
2019-02-06T21:52:14.352Z,15.37
2019-02-06T21:57:19.489Z,10.83
2019-02-06T22:02:24.511Z,12.17
2019-02-06T22:07:29.167Z,10.30
2019-02-06T22:12:34.639Z,9.60
2019-02-06T22:17:40.257Z,14.23
2019-02-06T22:22:45.324Z,12.37
2019-02-06T22:27:51.143Z,10.87
2019-02-06T22:32:57.011Z,11.37
2019-02-06T22:38:02.192Z,10.60
2019-02-06T22:43:09.904Z,16.97
2019-02-06T22:48:14.631Z,9.73
2019-02-06T22:53:19.332Z,11.90
2019-02-06T22:58:24.203Z,14.63
2019-02-06T23:03:30.288Z,9.90
2019-02-06T23:08:35.966Z,15.20
2019-02-06T23:13:40.579Z,12.03
2019-02-06T23:18:45.471Z,14.93
2019-02-06T23:23:51.776Z,13.10
2019-02-06T23:28:56.546Z,13.87
2019-02-06T23:34:01.815Z,11.30
2019-02-06T23:39:12.683Z,13.40
2019-02-06T23:44:28.329Z,11.30
2019-02-06T23:49:24.852Z,10.77
2019-02-06T23:54:29.856Z,12.00
2019-02-06T23:59:34.480Z,13.47
